sensor_id;sensor_type;location;lat;lon;timestamp;pressure;altitude;pressure_sealevel;temperature;humidity
25084;BME280;13075;55.682;37.564;2023-06-04T00:01:02;99674.03;;;16.09;76.84
25084;BME280;13075;55.682;37.564;2023-06-04T00:03:27;99669.53;;;15.92;75.68
25084;BME280;13075;55.682;37.564;2023-06-04T00:05:53;99672.56;;;15.84;77.18
25084;BME280;13075;55.682;37.564;2023-06-04T00:08:18;99676.88;;;15.85;76.11
25084;BME280;13075;55.682;37.564;2023-06-04T00:10:44;99682.78;;;15.93;76.30
25084;BME280;13075;55.682;37.564;2023-06-04T00:13:09;99685.28;;;15.95;76.91
25084;BME280;13075;55.682;37.564;2023-06-04T00:15:35;99684.13;;;16.02;77.52
25084;BME280;13075;55.682;37.564;2023-06-04T00:18:00;99690.63;;;15.83;77.79
25084;BME280;13075;55.682;37.564;2023-06-04T00:20:26;99683.63;;;15.64;78.17
25084;BME280;13075;55.682;37.564;2023-06-04T00:22:51;99690.88;;;15.82;78.11
25084;BME280;13075;55.682;37.564;2023-06-04T00:25:17;99693.91;;;15.85;76.64
25084;BME280;13075;55.682;37.564;2023-06-04T00:27:42;99691.00;;;15.87;76.48
25084;BME280;13075;55.682;37.564;2023-06-04T00:30:08;99697.44;;;15.86;75.95
25084;BME280;13075;55.682;37.564;2023-06-04T00:32:33;99688.63;;;15.90;76.10
25084;BME280;13075;55.682;37.564;2023-06-04T00:34:59;99697.44;;;15.86;75.94
25084;BME280;13075;55.682;37.564;2023-06-04T00:37:28;99698.00;;;15.76;76.55
25084;BME280;13075;55.682;37.564;2023-06-04T00:39:54;99694.34;;;15.82;77.53
25084;BME280;13075;55.682;37.564;2023-06-04T00:42:20;99695.56;;;15.86;76.99
25084;BME280;13075;55.682;37.564;2023-06-04T00:44:45;99693.19;;;15.78;77.39
25084;BME280;13075;55.682;37.564;2023-06-04T00:47:11;99695.03;;;15.66;75.91
25084;BME280;13075;55.682;37.564;2023-06-04T00:49:37;99691.66;;;15.71;78.43
25084;BME280;13075;55.682;37.564;2023-06-04T00:52:03;99705.03;;;15.77;77.94
25084;BME280;13075;55.682;37.564;2023-06-04T00:54:29;99707.38;;;15.74;77.20
25084;BME280;13075;55.682;37.564;2023-06-04T00:56:55;99716.63;;;15.66;76.87
25084;BME280;13075;55.682;37.564;2023-06-04T00:59:20;99720.72;;;15.69;78.24
25084;BME280;13075;55.682;37.564;2023-06-04T01:04:16;99712.88;;;15.49;77.08
25084;BME280;13075;55.682;37.564;2023-06-04T01:06:44;99719.50;;;15.17;79.80
25084;BME280;13075;55.682;37.564;2023-06-04T01:09:14;99718.56;;;15.59;79.07
25084;BME280;13075;55.682;37.564;2023-06-04T01:11:40;99721.34;;;15.52;76.95
25084;BME280;13075;55.682;37.564;2023-06-04T01:14:06;99726.66;;;15.59;77.55
25084;BME280;13075;55.682;37.564;2023-06-04T01:19:19;99722.38;;;15.51;79.10
25084;BME280;13075;55.682;37.564;2023-06-04T01:21:50;99730.56;;;15.63;77.56
25084;BME280;13075;55.682;37.564;2023-06-04T01:24:16;99730.47;;;15.51;79.69
25084;BME280;13075;55.682;37.564;2023-06-04T01:26:46;99731.28;;;15.70;78.24
25084;BME280;13075;55.682;37.564;2023-06-04T01:29:12;99734.91;;;15.10;79.73
25084;BME280;13075;55.682;37.564;2023-06-04T01:31:38;99733.88;;;15.47;79.27
25084;BME280;13075;55.682;37.564;2023-06-04T01:34:03;99735.28;;;15.49;79.64
25084;BME280;13075;55.682;37.564;2023-06-04T01:36:32;99740.81;;;15.36;80.61
25084;BME280;13075;55.682;37.564;2023-06-04T01:38:58;99749.97;;;15.17;78.26
25084;BME280;13075;55.682;37.564;2023-06-04T01:41:25;99743.75;;;15.35;80.82
25084;BME280;13075;55.682;37.564;2023-06-04T01:43:51;99756.16;;;15.36;79.51
25084;BME280;13075;55.682;37.564;2023-06-04T01:46:16;99751.97;;;15.22;80.61
25084;BME280;13075;55.682;37.564;2023-06-04T01:48:42;99749.03;;;15.41;79.11
25084;BME280;13075;55.682;37.564;2023-06-04T01:51:08;99745.75;;;15.21;79.42
25084;BME280;13075;55.682;37.564;2023-06-04T01:53:33;99757.81;;;15.55;78.47
25084;BME280;13075;55.682;37.564;2023-06-04T01:55:59;99748.91;;;15.36;81.04
25084;BME280;13075;55.682;37.564;2023-06-04T01:58:24;99763.28;;;15.30;81.76
25084;BME280;13075;55.682;37.564;2023-06-04T02:00:53;99762.59;;;15.71;77.70
25084;BME280;13075;55.682;37.564;2023-06-04T02:03:20;99764.34;;;15.66;77.75
25084;BME280;13075;55.682;37.564;2023-06-04T02:05:45;99759.94;;;15.53;77.32
25084;BME280;13075;55.682;37.564;2023-06-04T02:08:12;99767.59;;;15.56;77.49
25084;BME280;13075;55.682;37.564;2023-06-04T02:10:45;99768.16;;;15.40;79.46
25084;BME280;13075;55.682;37.564;2023-06-04T02:13:10;99779.97;;;15.39;83.25
25084;BME280;13075;55.682;37.564;2023-06-04T02:15:35;99772.94;;;15.38;81.66
25084;BME280;13075;55.682;37.564;2023-06-04T02:18:11;99776.47;;;15.56;79.82
25084;BME280;13075;55.682;37.564;2023-06-04T02:20:43;99779.16;;;15.56;80.05
25084;BME280;13075;55.682;37.564;2023-06-04T02:23:09;99780.59;;;15.59;81.07
25084;BME280;13075;55.682;37.564;2023-06-04T02:25:35;99784.69;;;15.62;79.38
25084;BME280;13075;55.682;37.564;2023-06-04T02:28:00;99794.66;;;15.25;83.47
25084;BME280;13075;55.682;37.564;2023-06-04T02:30:26;99797.19;;;15.02;81.07
25084;BME280;13075;55.682;37.564;2023-06-04T02:32:51;99789.44;;;15.48;81.80
25084;BME280;13075;55.682;37.564;2023-06-04T02:35:17;99798.94;;;15.69;80.63
25084;BME280;13075;55.682;37.564;2023-06-04T02:37:48;99799.00;;;15.62;81.05
25084;BME280;13075;55.682;37.564;2023-06-04T02:40:13;99811.22;;;15.46;81.62
25084;BME280;13075;55.682;37.564;2023-06-04T02:42:39;99808.94;;;15.07;82.89
25084;BME280;13075;55.682;37.564;2023-06-04T02:45:05;99808.22;;;15.36;82.63
25084;BME280;13075;55.682;37.564;2023-06-04T02:47:31;99812.59;;;15.55;82.23
25084;BME280;13075;55.682;37.564;2023-06-04T02:49:56;99818.84;;;15.31;84.06
25084;BME280;13075;55.682;37.564;2023-06-04T02:52:22;99818.03;;;15.49;83.78
25084;BME280;13075;55.682;37.564;2023-06-04T02:54:47;99816.84;;;15.81;82.82
25084;BME280;13075;55.682;37.564;2023-06-04T02:57:13;99832.03;;;15.39;79.37
25084;BME280;13075;55.682;37.564;2023-06-04T02:59:38;99835.25;;;15.30;83.58
25084;BME280;13075;55.682;37.564;2023-06-04T03:02:04;99827.63;;;16.11;80.70
25084;BME280;13075;55.682;37.564;2023-06-04T03:04:30;99837.16;;;15.47;80.46
25084;BME280;13075;55.682;37.564;2023-06-04T03:07:00;99826.41;;;15.77;80.83
25084;BME280;13075;55.682;37.564;2023-06-04T03:09:26;99839.31;;;16.23;77.50
25084;BME280;13075;55.682;37.564;2023-06-04T03:11:51;99842.16;;;16.28;76.50
25084;BME280;13075;55.682;37.564;2023-06-04T03:14:18;99843.72;;;16.36;76.41
25084;BME280;13075;55.682;37.564;2023-06-04T03:16:43;99851.44;;;16.32;74.96
25084;BME280;13075;55.682;37.564;2023-06-04T03:19:10;99856.84;;;16.62;74.50
25084;BME280;13075;55.682;37.564;2023-06-04T03:21:37;99867.41;;;16.63;72.01
25084;BME280;13075;55.682;37.564;2023-06-04T03:24:05;99856.06;;;17.42;70.77
25084;BME280;13075;55.682;37.564;2023-06-04T03:26:31;99864.91;;;17.50;69.82
25084;BME280;13075;55.682;37.564;2023-06-04T03:28:56;99877.59;;;17.26;72.00
25084;BME280;13075;55.682;37.564;2023-06-04T03:31:22;99856.38;;;18.21;69.53
25084;BME280;13075;55.682;37.564;2023-06-04T03:33:48;99860.47;;;21.18;58.12
25084;BME280;13075;55.682;37.564;2023-06-04T03:36:14;99864.97;;;19.79;58.60
25084;BME280;13075;55.682;37.564;2023-06-04T03:38:42;99873.78;;;19.48;60.74
25084;BME280;13075;55.682;37.564;2023-06-04T03:41:07;99859.69;;;20.96;56.62
25084;BME280;13075;55.682;37.564;2023-06-04T03:43:32;99862.81;;;20.24;56.26
25084;BME280;13075;55.682;37.564;2023-06-04T03:46:01;99883.31;;;19.50;59.30
25084;BME280;13075;55.682;37.564;2023-06-04T03:48:27;99887.28;;;19.09;61.14
25084;BME280;13075;55.682;37.564;2023-06-04T03:50:52;99890.72;;;19.21;60.12
25084;BME280;13075;55.682;37.564;2023-06-04T03:53:19;99883.44;;;19.60;59.51
25084;BME280;13075;55.682;37.564;2023-06-04T03:55:45;99883.31;;;19.17;59.85
25084;BME280;13075;55.682;37.564;2023-06-04T03:58:11;99888.13;;;18.65;62.79
25084;BME280;13075;55.682;37.564;2023-06-04T04:00:40;99890.09;;;18.53;62.92
25084;BME280;13075;55.682;37.564;2023-06-04T04:03:06;99889.38;;;18.46;63.51
25084;BME280;13075;55.682;37.564;2023-06-04T04:05:33;99894.72;;;18.01;66.17
25084;BME280;13075;55.682;37.564;2023-06-04T04:07:58;99897.81;;;17.93;67.31
25084;BME280;13075;55.682;37.564;2023-06-04T04:10:28;99900.44;;;17.65;67.95
25084;BME280;13075;55.682;37.564;2023-06-04T04:12:53;99899.78;;;17.97;69.99
25084;BME280;13075;55.682;37.564;2023-06-04T04:15:21;99899.78;;;17.97;68.34
25084;BME280;13075;55.682;37.564;2023-06-04T04:17:48;99895.31;;;17.91;68.73
25084;BME280;13075;55.682;37.564;2023-06-04T04:20:14;99899.47;;;17.82;68.92
25084;BME280;13075;55.682;37.564;2023-06-04T04:22:47;99898.50;;;17.19;70.97
25084;BME280;13075;55.682;37.564;2023-06-04T04:25:14;99900.19;;;17.78;69.00
25084;BME280;13075;55.682;37.564;2023-06-04T04:27:39;99894.16;;;17.76;69.90
25084;BME280;13075;55.682;37.564;2023-06-04T04:30:08;99899.94;;;17.91;70.27
25084;BME280;13075;55.682;37.564;2023-06-04T04:32:35;99907.38;;;17.72;69.41
25084;BME280;13075;55.682;37.564;2023-06-04T04:35:04;99913.97;;;17.65;69.29
25084;BME280;13075;55.682;37.564;2023-06-04T04:37:34;99912.69;;;17.67;72.07
25084;BME280;13075;55.682;37.564;2023-06-04T04:40:04;99914.97;;;17.98;70.37
25084;BME280;13075;55.682;37.564;2023-06-04T04:42:32;99908.63;;;17.81;70.33
25084;BME280;13075;55.682;37.564;2023-06-04T04:44:59;99913.06;;;17.99;70.37
25084;BME280;13075;55.682;37.564;2023-06-04T04:47:26;99922.53;;;18.25;69.97
25084;BME280;13075;55.682;37.564;2023-06-04T04:49:51;99920.03;;;17.83;70.92
25084;BME280;13075;55.682;37.564;2023-06-04T04:52:17;99918.16;;;17.84;70.94
25084;BME280;13075;55.682;37.564;2023-06-04T04:54:43;99922.69;;;18.18;70.30
25084;BME280;13075;55.682;37.564;2023-06-04T04:57:08;99922.47;;;18.08;70.39
25084;BME280;13075;55.682;37.564;2023-06-04T04:59:35;99921.53;;;18.14;68.76
25084;BME280;13075;55.682;37.564;2023-06-04T05:02:01;99916.59;;;18.51;67.97
25084;BME280;13075;55.682;37.564;2023-06-04T05:04:26;99919.81;;;17.73;67.47
25084;BME280;13075;55.682;37.564;2023-06-04T05:06:52;99924.00;;;18.16;67.04
25084;BME280;13075;55.682;37.564;2023-06-04T05:09:18;99924.41;;;18.64;66.46
25084;BME280;13075;55.682;37.564;2023-06-04T05:11:45;99928.75;;;18.93;65.53
25084;BME280;13075;55.682;37.564;2023-06-04T05:14:11;99927.13;;;18.64;66.28
25084;BME280;13075;55.682;37.564;2023-06-04T05:16:37;99935.25;;;18.64;67.61
25084;BME280;13075;55.682;37.564;2023-06-04T05:19:04;99938.41;;;19.17;65.51
25084;BME280;13075;55.682;37.564;2023-06-04T05:21:33;99930.06;;;18.91;65.63
25084;BME280;13075;55.682;37.564;2023-06-04T05:24:02;99927.25;;;18.86;66.03
25084;BME280;13075;55.682;37.564;2023-06-04T05:26:32;99925.78;;;18.78;64.42
25084;BME280;13075;55.682;37.564;2023-06-04T05:29:02;99928.88;;;18.87;65.07
25084;BME280;13075;55.682;37.564;2023-06-04T05:31:32;99924.06;;;19.05;63.40
25084;BME280;13075;55.682;37.564;2023-06-04T05:33:59;99926.69;;;19.34;62.57
25084;BME280;13075;55.682;37.564;2023-06-04T05:36:29;99927.94;;;19.09;64.18
25084;BME280;13075;55.682;37.564;2023-06-04T05:38:57;99923.25;;;19.05;62.52
25084;BME280;13075;55.682;37.564;2023-06-04T05:41:26;99922.78;;;19.58;59.81
25084;BME280;13075;55.682;37.564;2023-06-04T05:43:51;99930.69;;;19.43;61.98
25084;BME280;13075;55.682;37.564;2023-06-04T05:46:17;99919.38;;;19.34;61.15
25084;BME280;13075;55.682;37.564;2023-06-04T05:48:44;99929.91;;;19.14;60.23
25084;BME280;13075;55.682;37.564;2023-06-04T05:51:10;99931.75;;;19.80;59.47
25084;BME280;13075;55.682;37.564;2023-06-04T05:53:38;99926.59;;;19.40;58.74
25084;BME280;13075;55.682;37.564;2023-06-04T05:56:03;99928.59;;;19.00;60.61
25084;BME280;13075;55.682;37.564;2023-06-04T05:58:29;99937.16;;;19.25;58.56
25084;BME280;13075;55.682;37.564;2023-06-04T06:00:55;99931.47;;;19.98;56.38
25084;BME280;13075;55.682;37.564;2023-06-04T06:03:21;99931.47;;;19.98;57.35
25084;BME280;13075;55.682;37.564;2023-06-04T06:05:48;99937.47;;;20.38;57.49
25084;BME280;13075;55.682;37.564;2023-06-04T06:08:14;99940.72;;;19.97;54.62
25084;BME280;13075;55.682;37.564;2023-06-04T06:10:40;99933.94;;;20.00;54.89
25084;BME280;13075;55.682;37.564;2023-06-04T06:13:05;99938.91;;;20.24;55.12
25084;BME280;13075;55.682;37.564;2023-06-04T06:15:31;99941.50;;;20.36;55.69
25084;BME280;13075;55.682;37.564;2023-06-04T06:17:57;99940.72;;;20.40;54.97
25084;BME280;13075;55.682;37.564;2023-06-04T06:20:23;99932.75;;;20.12;54.60
25084;BME280;13075;55.682;37.564;2023-06-04T06:22:49;99940.69;;;20.19;53.85
25084;BME280;13075;55.682;37.564;2023-06-04T06:25:16;99939.78;;;20.52;53.06
25084;BME280;13075;55.682;37.564;2023-06-04T06:27:48;99946.22;;;20.99;51.88
25084;BME280;13075;55.682;37.564;2023-06-04T06:30:16;99933.22;;;20.74;52.45
25084;BME280;13075;55.682;37.564;2023-06-04T06:32:41;99933.91;;;21.92;50.34
25084;BME280;13075;55.682;37.564;2023-06-04T06:35:07;99936.47;;;21.66;50.22
25084;BME280;13075;55.682;37.564;2023-06-04T06:37:33;99934.38;;;21.84;49.11
25084;BME280;13075;55.682;37.564;2023-06-04T06:39:58;99936.69;;;22.69;48.21
25084;BME280;13075;55.682;37.564;2023-06-04T06:42:23;99926.91;;;22.88;46.80
25084;BME280;13075;55.682;37.564;2023-06-04T06:44:50;99927.47;;;23.35;44.71
25084;BME280;13075;55.682;37.564;2023-06-04T06:47:16;99931.94;;;26.52;40.18
25084;BME280;13075;55.682;37.564;2023-06-04T06:49:41;99916.06;;;32.33;32.09
25084;BME280;13075;55.682;37.564;2023-06-04T06:52:07;99914.91;;;30.90;29.68
25084;BME280;13075;55.682;37.564;2023-06-04T06:54:32;99919.09;;;33.76;28.29
25084;BME280;13075;55.682;37.564;2023-06-04T06:56:58;99920.22;;;29.34;30.94
25084;BME280;13075;55.682;37.564;2023-06-04T06:59:23;99914.88;;;27.11;33.73
25084;BME280;13075;55.682;37.564;2023-06-04T07:01:50;99920.72;;;33.89;28.26
25084;BME280;13075;55.682;37.564;2023-06-04T07:04:16;99905.72;;;38.68;23.46
25084;BME280;13075;55.682;37.564;2023-06-04T07:06:41;99916.41;;;38.62;21.47
25084;BME280;13075;55.682;37.564;2023-06-04T07:09:07;99914.91;;;40.09;21.20
25084;BME280;13075;55.682;37.564;2023-06-04T07:11:33;99913.81;;;39.76;20.72
25084;BME280;13075;55.682;37.564;2023-06-04T07:13:58;99922.03;;;32.93;25.39
25084;BME280;13075;55.682;37.564;2023-06-04T07:16:24;99923.81;;;30.44;28.00
25084;BME280;13075;55.682;37.564;2023-06-04T07:18:49;99929.53;;;30.47;28.70
25084;BME280;13075;55.682;37.564;2023-06-04T07:21:15;99925.47;;;35.13;23.40
25084;BME280;13075;55.682;37.564;2023-06-04T07:23:41;99918.91;;;37.92;21.20
25084;BME280;13075;55.682;37.564;2023-06-04T07:26:06;99914.88;;;35.90;22.94
25084;BME280;13075;55.682;37.564;2023-06-04T07:28:32;99915.50;;;32.39;25.28
25084;BME280;13075;55.682;37.564;2023-06-04T07:30:58;99929.84;;;29.00;29.04
25084;BME280;13075;55.682;37.564;2023-06-04T07:33:23;99930.78;;;26.95;32.36
25084;BME280;13075;55.682;37.564;2023-06-04T07:35:49;99928.72;;;26.26;32.88
25084;BME280;13075;55.682;37.564;2023-06-04T07:38:15;99923.50;;;25.77;33.25
25084;BME280;13075;55.682;37.564;2023-06-04T07:40:41;99943.38;;;32.43;28.14
25084;BME280;13075;55.682;37.564;2023-06-04T07:43:06;99925.47;;;38.52;22.90
25084;BME280;13075;55.682;37.564;2023-06-04T07:45:31;99922.78;;;38.11;21.48
25084;BME280;13075;55.682;37.564;2023-06-04T07:47:57;99933.91;;;33.80;24.28
25084;BME280;13075;55.682;37.564;2023-06-04T07:50:23;99926.00;;;31.24;25.94
25084;BME280;13075;55.682;37.564;2023-06-04T07:52:48;99923.31;;;37.93;21.19
25084;BME280;13075;55.682;37.564;2023-06-04T07:55:14;99920.47;;;39.24;19.52
25084;BME280;13075;55.682;37.564;2023-06-04T07:57:40;99919.28;;;42.77;17.08
25084;BME280;13075;55.682;37.564;2023-06-04T08:00:05;99911.97;;;41.25;17.44
25084;BME280;13075;55.682;37.564;2023-06-04T08:02:38;99916.34;;;35.00;20.59
25084;BME280;13075;55.682;37.564;2023-06-04T08:05:03;99915.44;;;31.17;24.67
25084;BME280;13075;55.682;37.564;2023-06-04T08:07:29;99932.38;;;28.75;27.41
25084;BME280;13075;55.682;37.564;2023-06-04T08:09:55;99930.53;;;27.75;28.09
25084;BME280;13075;55.682;37.564;2023-06-04T08:12:21;99931.56;;;25.64;30.80
25084;BME280;13075;55.682;37.564;2023-06-04T08:14:47;99928.88;;;24.91;31.77
25084;BME280;13075;55.682;37.564;2023-06-04T08:17:12;99947.16;;;24.52;33.36
25084;BME280;13075;55.682;37.564;2023-06-04T08:19:38;99945.44;;;23.97;33.94
25084;BME280;13075;55.682;37.564;2023-06-04T08:22:03;99941.88;;;23.91;34.50
25084;BME280;13075;55.682;37.564;2023-06-04T08:24:29;99949.91;;;23.42;35.28
25084;BME280;13075;55.682;37.564;2023-06-04T08:26:55;99943.31;;;23.18;35.78
25084;BME280;13075;55.682;37.564;2023-06-04T08:29:20;99942.19;;;27.02;30.83
25084;BME280;13075;55.682;37.564;2023-06-04T08:31:46;99943.94;;;25.27;31.66
25084;BME280;13075;55.682;37.564;2023-06-04T08:34:11;99945.09;;;24.83;31.89
25084;BME280;13075;55.682;37.564;2023-06-04T08:36:37;99947.94;;;23.18;34.21
25084;BME280;13075;55.682;37.564;2023-06-04T08:39:02;99943.59;;;23.02;34.68
25084;BME280;13075;55.682;37.564;2023-06-04T08:41:29;99944.94;;;22.99;34.89
25084;BME280;13075;55.682;37.564;2023-06-04T08:43:55;99953.81;;;22.54;34.68
25084;BME280;13075;55.682;37.564;2023-06-04T08:46:21;99944.13;;;23.14;34.50
25084;BME280;13075;55.682;37.564;2023-06-04T08:48:46;99951.97;;;22.65;34.54
25084;BME280;13075;55.682;37.564;2023-06-04T08:51:13;99950.78;;;24.32;33.82
25084;BME280;13075;55.682;37.564;2023-06-04T08:53:39;99947.31;;;24.06;33.54
25084;BME280;13075;55.682;37.564;2023-06-04T08:56:05;99944.75;;;24.40;32.53
25084;BME280;13075;55.682;37.564;2023-06-04T08:58:33;99941.88;;;23.91;34.38
25084;BME280;13075;55.682;37.564;2023-06-04T09:01:00;99950.59;;;24.13;34.87
25084;BME280;13075;55.682;37.564;2023-06-04T09:03:25;99957.47;;;23.91;35.44
25084;BME280;13075;55.682;37.564;2023-06-04T09:05:51;99951.50;;;23.28;35.00
25084;BME280;13075;55.682;37.564;2023-06-04T09:08:17;99955.03;;;23.14;34.73
25084;BME280;13075;55.682;37.564;2023-06-04T09:10:44;99959.69;;;23.28;34.46
25084;BME280;13075;55.682;37.564;2023-06-04T09:13:11;99961.53;;;22.72;35.73
25084;BME280;13075;55.682;37.564;2023-06-04T09:15:38;99961.56;;;22.92;36.10
25084;BME280;13075;55.682;37.564;2023-06-04T09:18:04;99961.94;;;22.34;36.65
25084;BME280;13075;55.682;37.564;2023-06-04T09:20:29;99958.94;;;22.41;37.50
25084;BME280;13075;55.682;37.564;2023-06-04T09:22:55;99969.75;;;22.87;36.04
25084;BME280;13075;55.682;37.564;2023-06-04T09:25:21;99966.38;;;22.60;36.66
25084;BME280;13075;55.682;37.564;2023-06-04T09:27:47;99978.81;;;22.36;36.47
25084;BME280;13075;55.682;37.564;2023-06-04T09:30:13;99982.56;;;22.20;35.73
25084;BME280;13075;55.682;37.564;2023-06-04T09:32:39;99976.03;;;22.21;35.51
25084;BME280;13075;55.682;37.564;2023-06-04T09:35:11;99976.03;;;22.98;35.34
25084;BME280;13075;55.682;37.564;2023-06-04T09:37:38;99967.75;;;24.29;33.96
25084;BME280;13075;55.682;37.564;2023-06-04T09:40:03;99963.19;;;24.04;33.83
25084;BME280;13075;55.682;37.564;2023-06-04T09:42:30;99969.66;;;24.39;32.60
25084;BME280;13075;55.682;37.564;2023-06-04T09:45:06;99958.50;;;24.20;32.37
25084;BME280;13075;55.682;37.564;2023-06-04T09:47:38;99963.13;;;24.30;32.99
25084;BME280;13075;55.682;37.564;2023-06-04T09:50:04;99962.16;;;23.60;33.94
25084;BME280;13075;55.682;37.564;2023-06-04T09:52:33;99959.09;;;23.97;34.13
25084;BME280;13075;55.682;37.564;2023-06-04T09:54:59;99962.91;;;24.11;33.82
25084;BME280;13075;55.682;37.564;2023-06-04T09:57:24;99963.69;;;24.22;34.11
25084;BME280;13075;55.682;37.564;2023-06-04T09:59:50;99958.56;;;24.69;33.20
25084;BME280;13075;55.682;37.564;2023-06-04T10:02:18;99964.00;;;24.79;32.93
25084;BME280;13075;55.682;37.564;2023-06-04T10:04:44;99971.50;;;24.53;31.65
25084;BME280;13075;55.682;37.564;2023-06-04T10:07:13;99966.22;;;24.67;32.24
25084;BME280;13075;55.682;37.564;2023-06-04T10:09:42;99964.38;;;23.53;33.85
25084;BME280;13075;55.682;37.564;2023-06-04T10:12:11;99962.72;;;24.56;32.73
25084;BME280;13075;55.682;37.564;2023-06-04T10:14:41;99972.63;;;24.42;32.38
25084;BME280;13075;55.682;37.564;2023-06-04T10:17:07;99958.97;;;24.91;31.88
25084;BME280;13075;55.682;37.564;2023-06-04T10:19:34;99950.69;;;25.01;32.14
25084;BME280;13075;55.682;37.564;2023-06-04T10:22:00;99952.75;;;24.81;32.47
25084;BME280;13075;55.682;37.564;2023-06-04T10:24:26;99952.19;;;24.30;32.22
25084;BME280;13075;55.682;37.564;2023-06-04T10:26:52;99955.50;;;24.22;32.77
25084;BME280;13075;55.682;37.564;2023-06-04T10:29:20;99943.81;;;24.60;32.96
25084;BME280;13075;55.682;37.564;2023-06-04T10:31:46;99951.41;;;24.19;33.13
25084;BME280;13075;55.682;37.564;2023-06-04T10:34:12;99949.06;;;23.52;34.18
25084;BME280;13075;55.682;37.564;2023-06-04T10:36:42;99949.34;;;23.35;34.26
25084;BME280;13075;55.682;37.564;2023-06-04T10:39:07;99954.19;;;22.78;36.06
25084;BME280;13075;55.682;37.564;2023-06-04T10:41:33;99946.50;;;22.65;36.78
25084;BME280;13075;55.682;37.564;2023-06-04T10:44:00;99954.34;;;22.56;35.59
25084;BME280;13075;55.682;37.564;2023-06-04T10:46:36;99959.38;;;22.94;36.25
25084;BME280;13075;55.682;37.564;2023-06-04T10:49:02;99956.22;;;22.41;36.02
25084;BME280;13075;55.682;37.564;2023-06-04T10:51:34;99950.13;;;23.11;34.89
25084;BME280;13075;55.682;37.564;2023-06-04T10:54:02;99956.91;;;22.83;35.45
25084;BME280;13075;55.682;37.564;2023-06-04T10:56:29;99959.38;;;22.89;34.87
25084;BME280;13075;55.682;37.564;2023-06-04T10:58:55;99954.78;;;23.30;35.13
25084;BME280;13075;55.682;37.564;2023-06-04T11:01:27;99948.75;;;23.28;34.75
25084;BME280;13075;55.682;37.564;2023-06-04T11:03:53;99953.47;;;23.38;34.53
25084;BME280;13075;55.682;37.564;2023-06-04T11:06:19;99958.09;;;23.42;34.95
25084;BME280;13075;55.682;37.564;2023-06-04T11:08:46;99955.38;;;23.37;33.71
25084;BME280;13075;55.682;37.564;2023-06-04T11:11:12;99959.97;;;23.62;34.43
25084;BME280;13075;55.682;37.564;2023-06-04T11:13:39;99959.28;;;24.31;33.08
25084;BME280;13075;55.682;37.564;2023-06-04T11:16:14;99963.81;;;23.71;33.29
25084;BME280;13075;55.682;37.564;2023-06-04T11:18:39;99950.59;;;24.13;33.10
25084;BME280;13075;55.682;37.564;2023-06-04T11:21:05;99948.19;;;24.61;33.74
25084;BME280;13075;55.682;37.564;2023-06-04T11:23:30;99942.38;;;24.72;33.14
25084;BME280;13075;55.682;37.564;2023-06-04T11:25:56;99939.94;;;24.07;34.43
25084;BME280;13075;55.682;37.564;2023-06-04T11:28:21;99959.06;;;24.07;33.23
25084;BME280;13075;55.682;37.564;2023-06-04T11:30:57;99955.88;;;23.09;34.73
25084;BME280;13075;55.682;37.564;2023-06-04T11:33:22;99961.09;;;23.51;33.91
25084;BME280;13075;55.682;37.564;2023-06-04T11:35:48;99955.88;;;23.19;33.62
25084;BME280;13075;55.682;37.564;2023-06-04T11:38:13;99955.59;;;23.36;34.49
25084;BME280;13075;55.682;37.564;2023-06-04T11:40:39;99956.66;;;23.80;32.63
25084;BME280;13075;55.682;37.564;2023-06-04T11:43:04;99943.63;;;24.46;33.03
25084;BME280;13075;55.682;37.564;2023-06-04T11:45:30;99949.41;;;24.89;32.85
25084;BME280;13075;55.682;37.564;2023-06-04T11:47:56;99946.53;;;25.09;32.25
25084;BME280;13075;55.682;37.564;2023-06-04T11:50:22;99947.28;;;25.19;32.70
25084;BME280;13075;55.682;37.564;2023-06-04T11:52:48;99954.50;;;24.61;32.55
25084;BME280;13075;55.682;37.564;2023-06-04T11:55:14;99951.88;;;24.41;32.06
25084;BME280;13075;55.682;37.564;2023-06-04T11:57:42;99955.22;;;24.23;32.94
25084;BME280;13075;55.682;37.564;2023-06-04T12:00:08;99955.06;;;23.69;32.86
25084;BME280;13075;55.682;37.564;2023-06-04T12:02:37;99952.78;;;24.06;32.83
25084;BME280;13075;55.682;37.564;2023-06-04T12:05:12;99952.31;;;23.59;32.43
25084;BME280;13075;55.682;37.564;2023-06-04T12:07:38;99949.81;;;22.82;33.34
25084;BME280;13075;55.682;37.564;2023-06-04T12:10:07;99955.31;;;23.02;32.82
25084;BME280;13075;55.682;37.564;2023-06-04T12:12:34;99951.50;;;23.28;32.85
25084;BME280;13075;55.682;37.564;2023-06-04T12:15:00;99959.44;;;23.50;32.56
25084;BME280;13075;55.682;37.564;2023-06-04T12:17:25;99955.59;;;23.26;33.19
25084;BME280;13075;55.682;37.564;2023-06-04T12:19:51;99961.28;;;24.10;31.83
25084;BME280;13075;55.682;37.564;2023-06-04T12:22:17;99955.34;;;23.58;32.51
25084;BME280;13075;55.682;37.564;2023-06-04T12:24:52;99962.88;;;24.06;32.44
25084;BME280;13075;55.682;37.564;2023-06-04T12:27:21;99954.22;;;23.84;32.41
25084;BME280;13075;55.682;37.564;2023-06-04T12:29:58;99958.59;;;23.75;32.30
25084;BME280;13075;55.682;37.564;2023-06-04T12:32:24;99960.16;;;24.16;31.45
25084;BME280;13075;55.682;37.564;2023-06-04T12:34:50;99957.44;;;24.11;33.16
25084;BME280;13075;55.682;37.564;2023-06-04T12:37:15;99954.84;;;24.45;31.69
25084;BME280;13075;55.682;37.564;2023-06-04T12:39:41;99955.56;;;23.91;32.85
25084;BME280;13075;55.682;37.564;2023-06-04T12:42:08;99952.00;;;23.91;32.07
25084;BME280;13075;55.682;37.564;2023-06-04T12:44:37;99960.44;;;24.04;32.42
25084;BME280;13075;55.682;37.564;2023-06-04T12:47:03;99960.25;;;23.71;33.02
25084;BME280;13075;55.682;37.564;2023-06-04T12:49:29;99959.44;;;23.30;33.11
25084;BME280;13075;55.682;37.564;2023-06-04T12:51:54;99956.06;;;24.08;31.65